sensor_id;sensor_type;location;lat;lon;timestamp;P1;durP1;ratioP1;P2;durP2;ratioP2
65172;SDS011;51758;52.218;5.172;2023-01-29T00:01:12;19.27;;;13.43;;
65172;SDS011;51758;52.218;5.172;2023-01-29T00:03:40;19.67;;;13.90;;
65172;SDS011;51758;52.218;5.172;2023-01-29T00:06:08;22.00;;;13.97;;
65172;SDS011;51758;52.218;5.172;2023-01-29T00:08:38;18.27;;;13.23;;
65172;SDS011;51758;52.218;5.172;2023-01-29T00:11:06;19.10;;;13.70;;
65172;SDS011;51758;52.218;5.172;2023-01-29T00:13:35;21.33;;;13.77;;
65172;SDS011;51758;52.218;5.172;2023-01-29T00:16:02;23.43;;;14.80;;
65172;SDS011;51758;52.218;5.172;2023-01-29T00:18:31;22.98;;;13.82;;
65172;SDS011;51758;52.218;5.172;2023-01-29T00:20:58;22.60;;;14.40;;
65172;SDS011;51758;52.218;5.172;2023-01-29T00:23:26;19.73;;;14.03;;
65172;SDS011;51758;52.218;5.172;2023-01-29T00:25:58;20.50;;;13.53;;
65172;SDS011;51758;52.218;5.172;2023-01-29T00:28:25;21.20;;;13.57;;
65172;SDS011;51758;52.218;5.172;2023-01-29T00:30:53;18.77;;;13.17;;
65172;SDS011;51758;52.218;5.172;2023-01-29T00:33:21;19.83;;;13.20;;
65172;SDS011;51758;52.218;5.172;2023-01-29T00:35:48;19.57;;;13.97;;
65172;SDS011;51758;52.218;5.172;2023-01-29T00:38:16;21.23;;;13.23;;
65172;SDS011;51758;52.218;5.172;2023-01-29T00:40:44;22.07;;;14.50;;
65172;SDS011;51758;52.218;5.172;2023-01-29T00:43:30;21.57;;;14.23;;
65172;SDS011;51758;52.218;5.172;2023-01-29T00:46:15;20.20;;;14.00;;
65172;SDS011;51758;52.218;5.172;2023-01-29T00:48:43;21.60;;;14.93;;
65172;SDS011;51758;52.218;5.172;2023-01-29T00:51:11;22.67;;;15.57;;
65172;SDS011;51758;52.218;5.172;2023-01-29T00:53:38;22.53;;;15.60;;
65172;SDS011;51758;52.218;5.172;2023-01-29T00:56:06;23.47;;;16.20;;
65172;SDS011;51758;52.218;5.172;2023-01-29T00:58:35;23.83;;;15.57;;
65172;SDS011;51758;52.218;5.172;2023-01-29T01:01:03;23.27;;;14.77;;
65172;SDS011;51758;52.218;5.172;2023-01-29T01:03:31;23.15;;;15.52;;
65172;SDS011;51758;52.218;5.172;2023-01-29T01:06:04;22.90;;;14.93;;
65172;SDS011;51758;52.218;5.172;2023-01-29T01:08:32;22.53;;;15.30;;
65172;SDS011;51758;52.218;5.172;2023-01-29T01:11:26;21.90;;;14.60;;
65172;SDS011;51758;52.218;5.172;2023-01-29T01:13:55;22.10;;;15.20;;
65172;SDS011;51758;52.218;5.172;2023-01-29T01:16:27;25.23;;;14.60;;
65172;SDS011;51758;52.218;5.172;2023-01-29T01:18:54;21.57;;;14.40;;
65172;SDS011;51758;52.218;5.172;2023-01-29T01:21:22;20.30;;;13.73;;
65172;SDS011;51758;52.218;5.172;2023-01-29T01:23:50;21.03;;;14.70;;
65172;SDS011;51758;52.218;5.172;2023-01-29T01:26:18;22.77;;;14.50;;
65172;SDS011;51758;52.218;5.172;2023-01-29T01:28:46;19.83;;;13.73;;
65172;SDS011;51758;52.218;5.172;2023-01-29T01:31:15;21.00;;;14.23;;
65172;SDS011;51758;52.218;5.172;2023-01-29T01:33:43;21.97;;;15.23;;
65172;SDS011;51758;52.218;5.172;2023-01-29T01:36:11;23.60;;;13.93;;
65172;SDS011;51758;52.218;5.172;2023-01-29T01:38:39;22.37;;;14.00;;
65172;SDS011;51758;52.218;5.172;2023-01-29T01:41:10;21.00;;;13.97;;
65172;SDS011;51758;52.218;5.172;2023-01-29T01:43:46;22.73;;;13.95;;
65172;SDS011;51758;52.218;5.172;2023-01-29T01:46:16;22.40;;;14.33;;
65172;SDS011;51758;52.218;5.172;2023-01-29T01:48:44;18.20;;;13.27;;
65172;SDS011;51758;52.218;5.172;2023-01-29T01:51:16;20.43;;;13.80;;
65172;SDS011;51758;52.218;5.172;2023-01-29T01:53:47;19.88;;;14.27;;
65172;SDS011;51758;52.218;5.172;2023-01-29T01:56:21;21.33;;;13.70;;
65172;SDS011;51758;52.218;5.172;2023-01-29T01:58:53;19.50;;;13.07;;
65172;SDS011;51758;52.218;5.172;2023-01-29T02:01:24;20.37;;;13.37;;
65172;SDS011;51758;52.218;5.172;2023-01-29T02:03:55;18.97;;;13.30;;
65172;SDS011;51758;52.218;5.172;2023-01-29T02:06:45;21.20;;;13.20;;
65172;SDS011;51758;52.218;5.172;2023-01-29T02:09:31;19.77;;;12.27;;
65172;SDS011;51758;52.218;5.172;2023-01-29T02:12:05;21.00;;;13.87;;
65172;SDS011;51758;52.218;5.172;2023-01-29T02:14:35;21.93;;;13.83;;
65172;SDS011;51758;52.218;5.172;2023-01-29T02:17:06;21.13;;;13.90;;
65172;SDS011;51758;52.218;5.172;2023-01-29T02:19:40;19.47;;;13.67;;
65172;SDS011;51758;52.218;5.172;2023-01-29T02:22:22;22.67;;;14.20;;
65172;SDS011;51758;52.218;5.172;2023-01-29T02:25:04;20.90;;;14.63;;
65172;SDS011;51758;52.218;5.172;2023-01-29T02:28:11;22.00;;;14.60;;
65172;SDS011;51758;52.218;5.172;2023-01-29T02:30:48;23.33;;;14.57;;
65172;SDS011;51758;52.218;5.172;2023-01-29T02:33:25;21.63;;;14.83;;
65172;SDS011;51758;52.218;5.172;2023-01-29T02:36:04;20.73;;;14.70;;
65172;SDS011;51758;52.218;5.172;2023-01-29T02:38:42;20.77;;;14.48;;
65172;SDS011;51758;52.218;5.172;2023-01-29T02:41:14;20.80;;;14.87;;
65172;SDS011;51758;52.218;5.172;2023-01-29T02:43:47;22.00;;;15.33;;
65172;SDS011;51758;52.218;5.172;2023-01-29T02:46:22;21.80;;;15.63;;
65172;SDS011;51758;52.218;5.172;2023-01-29T02:48:57;22.70;;;14.63;;
65172;SDS011;51758;52.218;5.172;2023-01-29T02:51:31;19.93;;;14.13;;
65172;SDS011;51758;52.218;5.172;2023-01-29T02:54:05;20.93;;;14.80;;
65172;SDS011;51758;52.218;5.172;2023-01-29T02:56:38;20.73;;;15.17;;
65172;SDS011;51758;52.218;5.172;2023-01-29T02:59:15;25.03;;;16.40;;
65172;SDS011;51758;52.218;5.172;2023-01-29T03:01:46;23.37;;;16.03;;
65172;SDS011;51758;52.218;5.172;2023-01-29T03:04:17;22.47;;;15.13;;
65172;SDS011;51758;52.218;5.172;2023-01-29T03:06:50;23.30;;;16.33;;
65172;SDS011;51758;52.218;5.172;2023-01-29T03:09:24;24.77;;;16.47;;
65172;SDS011;51758;52.218;5.172;2023-01-29T03:12:01;24.27;;;16.07;;
65172;SDS011;51758;52.218;5.172;2023-01-29T03:14:46;25.13;;;16.80;;
65172;SDS011;51758;52.218;5.172;2023-01-29T03:17:35;23.73;;;16.37;;
65172;SDS011;51758;52.218;5.172;2023-01-29T03:20:08;24.60;;;17.43;;
65172;SDS011;51758;52.218;5.172;2023-01-29T03:22:43;26.97;;;18.30;;
65172;SDS011;51758;52.218;5.172;2023-01-29T03:25:15;29.77;;;18.20;;
65172;SDS011;51758;52.218;5.172;2023-01-29T03:28:04;29.77;;;18.60;;
65172;SDS011;51758;52.218;5.172;2023-01-29T03:30:53;26.20;;;18.27;;
65172;SDS011;51758;52.218;5.172;2023-01-29T03:33:42;31.10;;;19.93;;
65172;SDS011;51758;52.218;5.172;2023-01-29T03:36:15;29.03;;;20.00;;
65172;SDS011;51758;52.218;5.172;2023-01-29T03:38:47;32.57;;;19.97;;
65172;SDS011;51758;52.218;5.172;2023-01-29T03:41:18;31.53;;;20.27;;
65172;SDS011;51758;52.218;5.172;2023-01-29T03:43:53;28.93;;;20.30;;
65172;SDS011;51758;52.218;5.172;2023-01-29T03:46:34;27.90;;;19.10;;
65172;SDS011;51758;52.218;5.172;2023-01-29T03:49:09;34.03;;;21.83;;
65172;SDS011;51758;52.218;5.172;2023-01-29T03:51:45;31.17;;;20.73;;
65172;SDS011;51758;52.218;5.172;2023-01-29T03:54:22;30.45;;;20.48;;
65172;SDS011;51758;52.218;5.172;2023-01-29T03:56:56;29.27;;;20.97;;
65172;SDS011;51758;52.218;5.172;2023-01-29T03:59:32;30.67;;;20.70;;
65172;SDS011;51758;52.218;5.172;2023-01-29T04:02:09;34.80;;;21.23;;
65172;SDS011;51758;52.218;5.172;2023-01-29T04:04:40;32.10;;;20.87;;
65172;SDS011;51758;52.218;5.172;2023-01-29T04:07:13;33.93;;;21.73;;
65172;SDS011;51758;52.218;5.172;2023-01-29T04:09:45;35.13;;;21.50;;
65172;SDS011;51758;52.218;5.172;2023-01-29T04:12:17;33.70;;;22.80;;
65172;SDS011;51758;52.218;5.172;2023-01-29T04:14:50;33.27;;;21.70;;
65172;SDS011;51758;52.218;5.172;2023-01-29T04:17:22;32.10;;;21.73;;
65172;SDS011;51758;52.218;5.172;2023-01-29T04:19:58;33.77;;;21.17;;
65172;SDS011;51758;52.218;5.172;2023-01-29T04:22:27;32.05;;;20.83;;
65172;SDS011;51758;52.218;5.172;2023-01-29T04:24:58;36.33;;;22.83;;
65172;SDS011;51758;52.218;5.172;2023-01-29T04:27:29;31.97;;;21.50;;
65172;SDS011;51758;52.218;5.172;2023-01-29T04:30:10;36.07;;;23.50;;
65172;SDS011;51758;52.218;5.172;2023-01-29T04:33:03;33.28;;;21.75;;
65172;SDS011;51758;52.218;5.172;2023-01-29T04:35:43;33.27;;;21.40;;
65172;SDS011;51758;52.218;5.172;2023-01-29T04:40:53;35.30;;;22.53;;
65172;SDS011;51758;52.218;5.172;2023-01-29T04:43:36;34.00;;;21.10;;
65172;SDS011;51758;52.218;5.172;2023-01-29T04:46:11;34.13;;;21.70;;
65172;SDS011;51758;52.218;5.172;2023-01-29T04:48:47;32.57;;;21.10;;
65172;SDS011;51758;52.218;5.172;2023-01-29T04:51:30;35.17;;;22.20;;
65172;SDS011;51758;52.218;5.172;2023-01-29T04:54:06;34.27;;;23.87;;
65172;SDS011;51758;52.218;5.172;2023-01-29T04:56:40;33.37;;;21.33;;
65172;SDS011;51758;52.218;5.172;2023-01-29T04:59:16;35.97;;;22.43;;
65172;SDS011;51758;52.218;5.172;2023-01-29T05:01:48;33.00;;;22.00;;
65172;SDS011;51758;52.218;5.172;2023-01-29T05:04:18;33.33;;;22.27;;
65172;SDS011;51758;52.218;5.172;2023-01-29T05:06:47;32.73;;;21.80;;
65172;SDS011;51758;52.218;5.172;2023-01-29T05:09:16;33.70;;;21.67;;
65172;SDS011;51758;52.218;5.172;2023-01-29T05:11:44;36.65;;;21.55;;
65172;SDS011;51758;52.218;5.172;2023-01-29T05:14:14;35.43;;;22.93;;
65172;SDS011;51758;52.218;5.172;2023-01-29T05:16:46;36.37;;;21.60;;
65172;SDS011;51758;52.218;5.172;2023-01-29T05:19:19;34.63;;;22.17;;
65172;SDS011;51758;52.218;5.172;2023-01-29T05:24:16;31.20;;;19.73;;
65172;SDS011;51758;52.218;5.172;2023-01-29T05:26:45;33.93;;;21.27;;
65172;SDS011;51758;52.218;5.172;2023-01-29T05:29:32;35.20;;;20.33;;
65172;SDS011;51758;52.218;5.172;2023-01-29T05:32:00;32.60;;;20.60;;
65172;SDS011;51758;52.218;5.172;2023-01-29T05:34:30;34.35;;;21.88;;
65172;SDS011;51758;52.218;5.172;2023-01-29T05:36:57;32.43;;;20.43;;
65172;SDS011;51758;52.218;5.172;2023-01-29T05:39:25;32.37;;;20.30;;
65172;SDS011;51758;52.218;5.172;2023-01-29T05:41:53;30.67;;;20.27;;
65172;SDS011;51758;52.218;5.172;2023-01-29T05:44:20;36.70;;;22.97;;
65172;SDS011;51758;52.218;5.172;2023-01-29T05:46:48;33.63;;;20.67;;
65172;SDS011;51758;52.218;5.172;2023-01-29T05:49:16;31.47;;;20.80;;
65172;SDS011;51758;52.218;5.172;2023-01-29T05:51:47;31.80;;;21.27;;
65172;SDS011;51758;52.218;5.172;2023-01-29T05:54:14;33.10;;;21.87;;
65172;SDS011;51758;52.218;5.172;2023-01-29T05:56:42;37.23;;;21.57;;
65172;SDS011;51758;52.218;5.172;2023-01-29T05:59:09;33.40;;;21.53;;
65172;SDS011;51758;52.218;5.172;2023-01-29T06:01:37;37.67;;;21.43;;
65172;SDS011;51758;52.218;5.172;2023-01-29T06:04:05;32.60;;;21.00;;
65172;SDS011;51758;52.218;5.172;2023-01-29T06:06:33;33.00;;;22.30;;
65172;SDS011;51758;52.218;5.172;2023-01-29T06:09:02;31.87;;;21.93;;
65172;SDS011;51758;52.218;5.172;2023-01-29T06:11:29;33.87;;;20.73;;
65172;SDS011;51758;52.218;5.172;2023-01-29T06:13:57;36.60;;;23.00;;
65172;SDS011;51758;52.218;5.172;2023-01-29T06:16:25;33.10;;;21.77;;
65172;SDS011;51758;52.218;5.172;2023-01-29T06:18:52;34.17;;;21.27;;
65172;SDS011;51758;52.218;5.172;2023-01-29T06:21:20;32.40;;;20.63;;
65172;SDS011;51758;52.218;5.172;2023-01-29T06:23:48;35.10;;;22.43;;
65172;SDS011;51758;52.218;5.172;2023-01-29T06:26:19;32.90;;;21.53;;
65172;SDS011;51758;52.218;5.172;2023-01-29T06:31:15;33.67;;;23.10;;
65172;SDS011;51758;52.218;5.172;2023-01-29T06:34:03;32.92;;;21.50;;
65172;SDS011;51758;52.218;5.172;2023-01-29T06:36:31;34.10;;;22.03;;
65172;SDS011;51758;52.218;5.172;2023-01-29T06:38:59;37.43;;;24.13;;
65172;SDS011;51758;52.218;5.172;2023-01-29T06:41:28;35.07;;;23.07;;
65172;SDS011;51758;52.218;5.172;2023-01-29T06:43:55;32.83;;;22.07;;
65172;SDS011;51758;52.218;5.172;2023-01-29T06:46:23;36.37;;;24.50;;
65172;SDS011;51758;52.218;5.172;2023-01-29T06:48:51;32.77;;;23.00;;
65172;SDS011;51758;52.218;5.172;2023-01-29T06:51:18;35.97;;;22.50;;
65172;SDS011;51758;52.218;5.172;2023-01-29T06:53:48;35.87;;;23.03;;
65172;SDS011;51758;52.218;5.172;2023-01-29T06:56:15;34.00;;;22.90;;
65172;SDS011;51758;52.218;5.172;2023-01-29T06:58:44;36.10;;;23.97;;
65172;SDS011;51758;52.218;5.172;2023-01-29T07:03:59;31.20;;;21.40;;
65172;SDS011;51758;52.218;5.172;2023-01-29T07:06:28;39.42;;;24.45;;
65172;SDS011;51758;52.218;5.172;2023-01-29T07:08:56;32.17;;;21.40;;
65172;SDS011;51758;52.218;5.172;2023-01-29T07:11:23;35.13;;;24.03;;
65172;SDS011;51758;52.218;5.172;2023-01-29T07:13:53;33.00;;;22.10;;
65172;SDS011;51758;52.218;5.172;2023-01-29T07:16:20;33.73;;;22.20;;
65172;SDS011;51758;52.218;5.172;2023-01-29T07:18:48;33.28;;;21.88;;
65172;SDS011;51758;52.218;5.172;2023-01-29T07:21:16;35.47;;;22.87;;
65172;SDS011;51758;52.218;5.172;2023-01-29T07:23:44;35.90;;;24.67;;
65172;SDS011;51758;52.218;5.172;2023-01-29T07:26:11;31.57;;;20.27;;
65172;SDS011;51758;52.218;5.172;2023-01-29T07:28:39;30.43;;;20.97;;
65172;SDS011;51758;52.218;5.172;2023-01-29T07:31:08;30.95;;;21.98;;
65172;SDS011;51758;52.218;5.172;2023-01-29T07:33:39;32.33;;;20.67;;
65172;SDS011;51758;52.218;5.172;2023-01-29T07:36:09;34.23;;;22.53;;
65172;SDS011;51758;52.218;5.172;2023-01-29T07:38:37;32.08;;;21.98;;
65172;SDS011;51758;52.218;5.172;2023-01-29T07:41:05;29.63;;;20.67;;
65172;SDS011;51758;52.218;5.172;2023-01-29T07:43:33;30.05;;;21.33;;
65172;SDS011;51758;52.218;5.172;2023-01-29T07:46:01;31.63;;;22.37;;
65172;SDS011;51758;52.218;5.172;2023-01-29T07:48:31;34.07;;;22.67;;
65172;SDS011;51758;52.218;5.172;2023-01-29T07:50:59;30.37;;;22.13;;
65172;SDS011;51758;52.218;5.172;2023-01-29T07:53:27;30.53;;;22.37;;
65172;SDS011;51758;52.218;5.172;2023-01-29T07:55:55;31.10;;;22.03;;
65172;SDS011;51758;52.218;5.172;2023-01-29T07:58:23;32.08;;;23.67;;
65172;SDS011;51758;52.218;5.172;2023-01-29T08:00:50;33.07;;;22.50;;
65172;SDS011;51758;52.218;5.172;2023-01-29T08:03:18;31.97;;;22.87;;
65172;SDS011;51758;52.218;5.172;2023-01-29T08:05:48;27.55;;;20.40;;
65172;SDS011;51758;52.218;5.172;2023-01-29T08:08:15;30.73;;;22.80;;
65172;SDS011;51758;52.218;5.172;2023-01-29T08:10:44;30.10;;;22.08;;
65172;SDS011;51758;52.218;5.172;2023-01-29T08:13:12;29.50;;;22.80;;
65172;SDS011;51758;52.218;5.172;2023-01-29T08:15:41;30.37;;;20.37;;
65172;SDS011;51758;52.218;5.172;2023-01-29T08:18:09;28.40;;;20.30;;
65172;SDS011;51758;52.218;5.172;2023-01-29T08:20:36;30.63;;;21.83;;
65172;SDS011;51758;52.218;5.172;2023-01-29T08:23:07;32.13;;;21.60;;
65172;SDS011;51758;52.218;5.172;2023-01-29T08:25:38;27.47;;;20.97;;
65172;SDS011;51758;52.218;5.172;2023-01-29T08:28:06;32.77;;;21.53;;
65172;SDS011;51758;52.218;5.172;2023-01-29T08:30:34;30.00;;;20.70;;
65172;SDS011;51758;52.218;5.172;2023-01-29T08:33:02;35.77;;;23.63;;
65172;SDS011;51758;52.218;5.172;2023-01-29T08:35:30;33.80;;;23.48;;
65172;SDS011;51758;52.218;5.172;2023-01-29T08:37:58;30.67;;;21.97;;
65172;SDS011;51758;52.218;5.172;2023-01-29T08:40:30;36.07;;;23.13;;
65172;SDS011;51758;52.218;5.172;2023-01-29T08:42:59;32.13;;;21.40;;
65172;SDS011;51758;52.218;5.172;2023-01-29T08:45:28;33.60;;;22.83;;
65172;SDS011;51758;52.218;5.172;2023-01-29T08:47:56;29.00;;;20.77;;
65172;SDS011;51758;52.218;5.172;2023-01-29T08:50:24;31.17;;;21.03;;
65172;SDS011;51758;52.218;5.172;2023-01-29T08:52:51;33.13;;;21.13;;
65172;SDS011;51758;52.218;5.172;2023-01-29T08:55:24;26.73;;;19.60;;
65172;SDS011;51758;52.218;5.172;2023-01-29T08:57:53;27.88;;;19.60;;
65172;SDS011;51758;52.218;5.172;2023-01-29T09:00:22;28.33;;;20.23;;
65172;SDS011;51758;52.218;5.172;2023-01-29T09:02:50;27.87;;;19.50;;
65172;SDS011;51758;52.218;5.172;2023-01-29T09:05:18;32.03;;;22.83;;
65172;SDS011;51758;52.218;5.172;2023-01-29T09:07:45;28.90;;;19.30;;
65172;SDS011;51758;52.218;5.172;2023-01-29T09:10:13;28.07;;;21.17;;
65172;SDS011;51758;52.218;5.172;2023-01-29T09:12:42;28.13;;;19.27;;
65172;SDS011;51758;52.218;5.172;2023-01-29T09:15:11;27.13;;;19.27;;
65172;SDS011;51758;52.218;5.172;2023-01-29T09:17:39;27.30;;;19.30;;
65172;SDS011;51758;52.218;5.172;2023-01-29T09:20:08;26.97;;;19.10;;
65172;SDS011;51758;52.218;5.172;2023-01-29T09:22:37;30.67;;;22.73;;
65172;SDS011;51758;52.218;5.172;2023-01-29T09:25:05;28.17;;;22.70;;
65172;SDS011;51758;52.218;5.172;2023-01-29T09:27:33;26.90;;;20.33;;
65172;SDS011;51758;52.218;5.172;2023-01-29T09:30:01;28.00;;;20.33;;
65172;SDS011;51758;52.218;5.172;2023-01-29T09:32:31;28.73;;;20.33;;
65172;SDS011;51758;52.218;5.172;2023-01-29T09:35:19;28.80;;;19.67;;
65172;SDS011;51758;52.218;5.172;2023-01-29T09:37:47;27.35;;;19.63;;
65172;SDS011;51758;52.218;5.172;2023-01-29T09:40:19;26.67;;;20.13;;
65172;SDS011;51758;52.218;5.172;2023-01-29T09:42:51;30.93;;;20.60;;
65172;SDS011;51758;52.218;5.172;2023-01-29T09:45:24;30.03;;;21.20;;
65172;SDS011;51758;52.218;5.172;2023-01-29T09:47:56;29.30;;;19.33;;
65172;SDS011;51758;52.218;5.172;2023-01-29T09:50:27;26.67;;;20.03;;
65172;SDS011;51758;52.218;5.172;2023-01-29T09:52:59;29.23;;;19.60;;
65172;SDS011;51758;52.218;5.172;2023-01-29T09:55:32;27.50;;;18.80;;
65172;SDS011;51758;52.218;5.172;2023-01-29T09:58:04;26.60;;;19.50;;
65172;SDS011;51758;52.218;5.172;2023-01-29T10:00:48;31.67;;;21.17;;
65172;SDS011;51758;52.218;5.172;2023-01-29T10:03:29;29.67;;;20.70;;
65172;SDS011;51758;52.218;5.172;2023-01-29T10:06:24;29.57;;;20.47;;
65172;SDS011;51758;52.218;5.172;2023-01-29T10:09:23;28.87;;;20.50;;
65172;SDS011;51758;52.218;5.172;2023-01-29T10:12:11;26.20;;;18.83;;
65172;SDS011;51758;52.218;5.172;2023-01-29T10:14:51;26.33;;;19.30;;
65172;SDS011;51758;52.218;5.172;2023-01-29T10:17:37;30.77;;;21.43;;
65172;SDS011;51758;52.218;5.172;2023-01-29T10:20:23;30.20;;;19.43;;
65172;SDS011;51758;52.218;5.172;2023-01-29T10:23:06;28.87;;;20.73;;
65172;SDS011;51758;52.218;5.172;2023-01-29T10:25:42;30.00;;;20.67;;
65172;SDS011;51758;52.218;5.172;2023-01-29T10:28:14;30.43;;;22.60;;
65172;SDS011;51758;52.218;5.172;2023-01-29T10:30:46;28.03;;;20.43;;
65172;SDS011;51758;52.218;5.172;2023-01-29T10:33:17;28.70;;;20.70;;
65172;SDS011;51758;52.218;5.172;2023-01-29T10:35:53;31.80;;;21.67;;
65172;SDS011;51758;52.218;5.172;2023-01-29T10:38:27;30.33;;;21.83;;
65172;SDS011;51758;52.218;5.172;2023-01-29T10:41:13;32.10;;;22.17;;
65172;SDS011;51758;52.218;5.172;2023-01-29T10:43:54;30.70;;;21.10;;
65172;SDS011;51758;52.218;5.172;2023-01-29T10:46:35;31.33;;;21.37;;
65172;SDS011;51758;52.218;5.172;2023-01-29T10:49:17;28.03;;;20.67;;
65172;SDS011;51758;52.218;5.172;2023-01-29T10:52:00;29.97;;;21.57;;
65172;SDS011;51758;52.218;5.172;2023-01-29T10:54:40;34.50;;;23.13;;
65172;SDS011;51758;52.218;5.172;2023-01-29T10:57:18;31.40;;;23.40;;
65172;SDS011;51758;52.218;5.172;2023-01-29T11:00:00;34.87;;;22.93;;
65172;SDS011;51758;52.218;5.172;2023-01-29T11:02:41;40.60;;;24.07;;
65172;SDS011;51758;52.218;5.172;2023-01-29T11:05:14;37.53;;;23.83;;
65172;SDS011;51758;52.218;5.172;2023-01-29T11:07:48;34.20;;;24.23;;
65172;SDS011;51758;52.218;5.172;2023-01-29T11:10:26;34.37;;;23.40;;
65172;SDS011;51758;52.218;5.172;2023-01-29T11:12:54;35.83;;;23.13;;
65172;SDS011;51758;52.218;5.172;2023-01-29T11:15:24;35.60;;;23.07;;
65172;SDS011;51758;52.218;5.172;2023-01-29T11:18:06;35.97;;;23.20;;
65172;SDS011;51758;52.218;5.172;2023-01-29T11:20:39;37.17;;;26.03;;
65172;SDS011;51758;52.218;5.172;2023-01-29T11:25:51;36.40;;;22.57;;
65172;SDS011;51758;52.218;5.172;2023-01-29T11:28:34;43.37;;;27.20;;
65172;SDS011;51758;52.218;5.172;2023-01-29T11:31:16;39.03;;;24.80;;
65172;SDS011;51758;52.218;5.172;2023-01-29T11:33:45;37.57;;;24.50;;
65172;SDS011;51758;52.218;5.172;2023-01-29T11:39:16;42.40;;;26.07;;
65172;SDS011;51758;52.218;5.172;2023-01-29T11:41:47;57.77;;;30.63;;
65172;SDS011;51758;52.218;5.172;2023-01-29T11:44:20;37.33;;;24.97;;
65172;SDS011;51758;52.218;5.172;2023-01-29T11:46:56;36.73;;;25.47;;
65172;SDS011;51758;52.218;5.172;2023-01-29T11:49:36;37.23;;;25.83;;
65172;SDS011;51758;52.218;5.172;2023-01-29T11:52:08;39.43;;;25.10;;
65172;SDS011;51758;52.218;5.172;2023-01-29T11:54:39;43.20;;;28.07;;
65172;SDS011;51758;52.218;5.172;2023-01-29T11:57:18;37.73;;;25.90;;
65172;SDS011;51758;52.218;5.172;2023-01-29T11:59:53;42.53;;;27.67;;
65172;SDS011;51758;52.218;5.172;2023-01-29T12:02:24;42.63;;;29.73;;
65172;SDS011;51758;52.218;5.172;2023-01-29T12:04:57;40.97;;;26.77;;
65172;SDS011;51758;52.218;5.172;2023-01-29T12:07:29;41.77;;;27.90;;
65172;SDS011;51758;52.218;5.172;2023-01-29T12:12:27;41.53;;;26.23;;
65172;SDS011;51758;52.218;5.172;2023-01-29T12:15:02;37.97;;;26.30;;
65172;SDS011;51758;52.218;5.172;2023-01-29T12:17:32;40.50;;;26.33;;
65172;SDS011;51758;52.218;5.172;2023-01-29T12:20:05;40.23;;;26.10;;
65172;SDS011;51758;52.218;5.172;2023-01-29T12:22:41;36.90;;;25.17;;
65172;SDS011;51758;52.218;5.172;2023-01-29T12:25:19;40.13;;;26.80;;
65172;SDS011;51758;52.218;5.172;2023-01-29T12:27:52;34.73;;;24.80;;
65172;SDS011;51758;52.218;5.172;2023-01-29T12:30:26;37.57;;;25.93;;
65172;SDS011;51758;52.218;5.172;2023-01-29T12:32:59;41.30;;;25.70;;
65172;SDS011;51758;52.218;5.172;2023-01-29T12:35:34;36.20;;;24.50;;
65172;SDS011;51758;52.218;5.172;2023-01-29T12:38:07;40.67;;;26.97;;
65172;SDS011;51758;52.218;5.172;2023-01-29T12:40:49;42.47;;;28.70;;
65172;SDS011;51758;52.218;5.172;2023-01-29T12:43:21;39.20;;;25.97;;
65172;SDS011;51758;52.218;5.172;2023-01-29T12:45:53;47.23;;;28.93;;
65172;SDS011;51758;52.218;5.172;2023-01-29T12:48:24;38.57;;;26.53;;
65172;SDS011;51758;52.218;5.172;2023-01-29T12:50:54;40.33;;;27.03;;
65172;SDS011;51758;52.218;5.172;2023-01-29T12:53:30;39.90;;;27.30;;
65172;SDS011;51758;52.218;5.172;2023-01-29T12:56:03;39.30;;;26.73;;
65172;SDS011;51758;52.218;5.172;2023-01-29T12:58:37;40.37;;;26.63;;
65172;SDS011;51758;52.218;5.172;2023-01-29T13:01:11;41.73;;;27.77;;
65172;SDS011;51758;52.218;5.172;2023-01-29T13:03:44;36.50;;;26.37;;
65172;SDS011;51758;52.218;5.172;2023-01-29T13:06:17;38.60;;;27.03;;
65172;SDS011;51758;52.218;5.172;2023-01-29T13:08:49;34.80;;;25.57;;
65172;SDS011;51758;52.218;5.172;2023-01-29T13:11:23;38.80;;;26.43;;
65172;SDS011;51758;52.218;5.172;2023-01-29T13:13:55;40.30;;;27.87;;
65172;SDS011;51758;52.218;5.172;2023-01-29T13:16:28;35.97;;;25.57;;
65172;SDS011;51758;52.218;5.172;2023-01-29T13:18:59;35.67;;;25.77;;
65172;SDS011;51758;52.218;5.172;2023-01-29T13:21:30;39.30;;;27.07;;
65172;SDS011;51758;52.218;5.172;2023-01-29T13:24:04;42.87;;;27.93;;
65172;SDS011;51758;52.218;5.172;2023-01-29T13:26:40;37.93;;;27.97;;
65172;SDS011;51758;52.218;5.172;2023-01-29T13:29:16;39.17;;;27.87;;
65172;SDS011;51758;52.218;5.172;2023-01-29T13:31:48;36.77;;;26.17;;
65172;SDS011;51758;52.218;5.172;2023-01-29T13:34:20;39.37;;;25.50;;
65172;SDS011;51758;52.218;5.172;2023-01-29T13:36:51;38.47;;;26.93;;
65172;SDS011;51758;52.218;5.172;2023-01-29T13:39:23;36.37;;;25.37;;
65172;SDS011;51758;52.218;5.172;2023-01-29T13:41:55;41.80;;;29.70;;
65172;SDS011;51758;52.218;5.172;2023-01-29T13:44:25;35.50;;;25.07;;
65172;SDS011;51758;52.218;5.172;2023-01-29T13:46:55;33.73;;;25.50;;
65172;SDS011;51758;52.218;5.172;2023-01-29T13:49:28;39.40;;;26.00;;
65172;SDS011;51758;52.218;5.172;2023-01-29T13:52:14;35.50;;;26.77;;
65172;SDS011;51758;52.218;5.172;2023-01-29T13:54:49;35.83;;;25.50;;
65172;SDS011;51758;52.218;5.172;2023-01-29T13:57:34;34.97;;;27.00;;
65172;SDS011;51758;52.218;5.172;2023-01-29T14:03:32;40.03;;;27.63;;
65172;SDS011;51758;52.218;5.172;2023-01-29T14:09:33;34.00;;;23.73;;
65172;SDS011;51758;52.218;5.172;2023-01-29T14:12:30;34.23;;;25.30;;
65172;SDS011;51758;52.218;5.172;2023-01-29T14:17:57;35.53;;;27.47;;
65172;SDS011;51758;52.218;5.172;2023-01-29T14:20:32;36.03;;;24.93;;
65172;SDS011;51758;52.218;5.172;2023-01-29T14:23:17;35.47;;;24.80;;
65172;SDS011;51758;52.218;5.172;2023-01-29T14:25:50;37.73;;;25.77;;
65172;SDS011;51758;52.218;5.172;2023-01-29T14:28:20;38.10;;;28.77;;
65172;SDS011;51758;52.218;5.172;2023-01-29T14:30:50;36.87;;;27.33;;
65172;SDS011;51758;52.218;5.172;2023-01-29T14:33:26;36.08;;;26.85;;
65172;SDS011;51758;52.218;5.172;2023-01-29T14:35:59;41.57;;;27.20;;
65172;SDS011;51758;52.218;5.172;2023-01-29T14:38:31;47.33;;;28.53;;
65172;SDS011;51758;52.218;5.172;2023-01-29T14:41:07;36.40;;;24.88;;
65172;SDS011;51758;52.218;5.172;2023-01-29T14:43:46;39.60;;;27.83;;
65172;SDS011;51758;52.218;5.172;2023-01-29T14:49:11;41.40;;;27.47;;
65172;SDS011;51758;52.218;5.172;2023-01-29T14:51:40;37.80;;;25.20;;
65172;SDS011;51758;52.218;5.172;2023-01-29T14:54:16;35.20;;;24.57;;
65172;SDS011;51758;52.218;5.172;2023-01-29T14:56:54;39.80;;;25.00;;
65172;SDS011;51758;52.218;5.172;2023-01-29T14:59:28;34.90;;;24.73;;
65172;SDS011;51758;52.218;5.172;2023-01-29T15:02:00;35.53;;;24.37;;
65172;SDS011;51758;52.218;5.172;2023-01-29T15:04:38;34.33;;;24.83;;
65172;SDS011;51758;52.218;5.172;2023-01-29T15:07:14;36.57;;;23.83;;
65172;SDS011;51758;52.218;5.172;2023-01-29T15:09:50;38.05;;;24.40;;
65172;SDS011;51758;52.218;5.172;2023-01-29T15:12:44;31.73;;;23.50;;
65172;SDS011;51758;52.218;5.172;2023-01-29T15:15:16;36.83;;;23.30;;
65172;SDS011;51758;52.218;5.172;2023-01-29T15:17:54;33.92;;;21.52;;
65172;SDS011;51758;52.218;5.172;2023-01-29T15:20:30;37.50;;;23.17;;
65172;SDS011;51758;52.218;5.172;2023-01-29T15:22:59;34.87;;;21.63;;
65172;SDS011;51758;52.218;5.172;2023-01-29T15:25:30;35.03;;;23.33;;